Time;durP1;ratioP1;P1;durP2;ratioP2;P2;SDS_P1;SDS_P2;PMS_P1;PMS_P2;Temp;Humidity;BMP_temperature;BMP_pressure;BME280_temperature;BME280_humidity;BME280_pressure;Samples;Min_cycle;Max_cycle;Signal;HPM_P1;HPM_P2
2021/06/16 03:15:16;;;;;;;;;;;;;;;11.62;80.47;99507.81;5076620;23;19937;-79
2021/06/16 03:17:43;;;;;;;;;;;;;;;11.53;80.93;99510.94;5001849;28;19922;-79
2021/06/16 03:20:09;;;;;;;;;;;;;;;11.36;82.36;99511.78;5002195;28;19929;-80
2021/06/16 03:22:35;;;;;;;;;;;;;;;11.31;82.12;99513.81;5003093;28;19926;-81
2021/06/16 03:25:01;;;;;;;;;;;;;;;11.42;81.74;99517.66;5002190;28;20331;-81
2021/06/16 03:27:27;;;;;;;;;;;;;;;11.31;81.99;99516.47;5002250;28;19925;-81
2021/06/16 03:29:53;;;;;;;;;;;;;;;11.43;81.26;99515.88;4984804;28;20312;-81
2021/06/16 03:32:21;;;;;;;;;;;;;;;11.47;81.18;99524.50;4985266;28;19922;-82
2021/06/16 03:34:46;;;;;;;;;;;;;;;11.53;81.78;99518.91;4984439;28;20296;-83
2021/06/16 03:37:12;;;;;;;;;;;;;;;11.43;81.49;99514.06;4984726;28;19922;-81
2021/06/16 03:39:38;;;;;;;;;;;;;;;11.39;81.68;99520.47;5001954;28;19926;-82
2021/06/16 03:42:04;;;;;;;;;;;;;;;11.37;81.34;99530.28;5001639;28;19925;-81
2021/06/16 03:44:30;;;;;;;;;;;;;;;11.51;80.57;99526.09;4984712;28;20280;-82
2021/06/16 03:46:56;;;;;;;;;;;;;;;11.60;80.87;99521.16;4985281;28;20277;-84
2021/06/16 03:49:22;;;;;;;;;;;;;;;11.49;80.60;99522.63;4984483;28;20278;-84
2021/06/16 03:51:49;;;;;;;;;;;;;;;11.30;81.88;99523.56;5001524;28;19988;-83
2021/06/16 03:54:15;;;;;;;;;;;;;;;11.45;81.46;99522.81;4984402;28;19925;-83
2021/06/16 03:56:41;;;;;;;;;;;;;;;11.25;82.37;99521.16;4984559;28;20260;-82
2021/06/16 03:59:07;;;;;;;;;;;;;;;11.40;81.60;99513.38;5001199;28;19980;-83
2021/06/16 04:01:33;;;;;;;;;;;;;;;11.36;81.21;99512.66;5001314;28;19967;-82
2021/06/16 04:03:58;;;;;;;;;;;;;;;11.38;81.80;99510.78;5001334;28;19921;-82
2021/06/16 04:06:24;;;;;;;;;;;;;;;11.40;81.80;99510.72;4984028;28;19930;-83
2021/06/16 04:08:50;;;;;;;;;;;;;;;11.29;82.09;99507.75;5001675;28;19999;-82
2021/06/16 04:11:15;;;;;;;;;;;;;;;11.40;81.19;99502.75;5000736;28;19922;-82
2021/06/16 04:13:41;;;;;;;;;;;;;;;11.44;81.45;99506.97;5001179;28;19922;-82
2021/06/16 04:16:06;;;;;;;;;;;;;;;11.47;81.50;99503.28;5000630;28;20329;-82
2021/06/16 04:18:32;;;;;;;;;;;;;;;11.48;82.25;99499.72;5000880;28;19930;-82
2021/06/16 04:20:58;;;;;;;;;;;;;;;11.32;82.21;99500.47;5000513;28;19928;-82
2021/06/16 04:23:23;;;;;;;;;;;;;;;11.47;80.91;99500.63;5000564;28;19922;-83
2021/06/16 04:25:48;;;;;;;;;;;;;;;11.53;80.75;99495.03;4983063;28;20028;-82
2021/06/16 04:28:14;;;;;;;;;;;;;;;11.44;80.75;99499.03;5000860;28;20024;-82
2021/06/16 04:30:39;;;;;;;;;;;;;;;11.43;81.70;99498.13;5001111;28;19922;-84
2021/06/16 04:33:06;;;;;;;;;;;;;;;11.30;81.41;99512.13;5001039;28;19921;-82
2021/06/16 08:04:53;;;;;;;;;;;;;;;11.87;81.87;99416.28;4997873;28;19926;-81
2021/06/16 08:07:18;;;;;;;;;;;;;;;11.84;82.43;99425.28;5000116;28;20186;-82
2021/06/16 08:09:43;;;;;;;;;;;;;;;11.94;81.44;99423.00;4992201;28;19922;-82
2021/06/16 08:12:13;;;;;;;;;;;;;;;11.94;82.18;99417.69;4995253;28;19932;-82
2021/06/16 08:14:38;;;;;;;;;;;;;;;11.98;81.51;99419.22;4990817;28;20303;-79
2021/06/16 08:17:04;;;;;;;;;;;;;;;12.02;82.18;99415.47;4969829;28;19926;-81
2021/06/16 08:19:30;;;;;;;;;;;;;;;11.80;83.23;99415.75;4998286;28;20093;-81
2021/06/16 08:21:57;;;;;;;;;;;;;;;11.80;83.49;99416.59;4982420;28;19921;-81
2021/06/16 08:24:23;;;;;;;;;;;;;;;12.02;82.28;99411.97;4996849;28;19919;-81
2021/06/16 08:26:48;;;;;;;;;;;;;;;11.88;82.58;99412.69;4966867;28;19949;-81
2021/06/16 08:29:13;;;;;;;;;;;;;;;11.82;83.83;99409.44;4981275;28;20528;-81
2021/06/16 08:31:38;;;;;;;;;;;;;;;11.86;82.53;99407.47;4995747;28;19957;-81
2021/06/16 08:34:04;;;;;;;;;;;;;;;11.90;83.01;99406.38;5000467;28;20016;-83
2021/06/16 08:36:29;;;;;;;;;;;;;;;11.93;82.42;99402.69;4986800;28;19922;-81
2021/06/16 08:38:58;;;;;;;;;;;;;;;11.93;82.75;99400.03;4985982;28;19933;-81
2021/06/16 08:41:25;;;;;;;;;;;;;;;11.90;82.40;99401.06;4995088;28;19921;-82
2021/06/16 08:43:51;;;;;;;;;;;;;;;11.84;83.80;99408.47;4981957;28;19922;-82
2021/06/16 08:46:17;;;;;;;;;;;;;;;11.95;83.03;99406.13;4983053;28;19922;-82
2021/06/16 08:48:43;;;;;;;;;;;;;;;11.94;82.31;99399.97;4971883;28;19967;-81
2021/06/16 08:51:10;;;;;;;;;;;;;;;11.90;82.35;99402.84;4988145;28;20400;-80
2021/06/16 08:53:36;;;;;;;;;;;;;;;11.97;81.44;99396.28;4999739;28;19936;-83
2021/06/16 08:56:01;;;;;;;;;;;;;;;12.04;81.25;99397.66;4996928;28;19922;-81
2021/06/16 08:58:27;;;;;;;;;;;;;;;11.94;82.91;99396.47;4981423;28;19926;-83
2021/06/16 09:00:52;;;;;;;;;;;;;;;12.07;82.60;99397.50;4996451;28;19921;-81
2021/06/16 09:03:18;;;;;;;;;;;;;;;12.01;82.41;99395.16;4993053;28;19930;-84
2021/06/16 09:05:43;;;;;;;;;;;;;;;12.01;81.75;99392.50;4969989;28;19925;-78
2021/06/16 09:08:15;;;;;;;;;;;;;;;11.85;81.94;99391.63;4995422;28;19926;-81
2021/06/16 09:10:44;;;;;;;;;;;;;;;11.98;80.87;99382.94;4981414;28;20576;-80
2021/06/16 09:13:11;;;;;;;;;;;;;;;11.95;81.79;99385.75;4995455;28;19949;-81
2021/06/16 09:15:38;;;;;;;;;;;;;;;11.93;83.33;99390.28;4984893;28;19928;-81
2021/06/16 09:18:03;;;;;;;;;;;;;;;12.10;81.39;99392.00;4985254;28;19947;-80
2021/06/16 09:20:29;;;;;;;;;;;;;;;11.93;80.98;99390.28;4978982;28;20290;-81
2021/06/16 09:23:08;;;;;;;;;;;;;;;12.06;80.84;99387.81;4980789;28;20019;-81
2021/06/16 09:25:34;;;;;;;;;;;;;;;12.03;80.66;99377.38;4982854;28;19962;-81
2021/06/16 09:28:00;;;;;;;;;;;;;;;12.06;80.82;99382.50;5000532;28;20194;-81
2021/06/16 09:30:25;;;;;;;;;;;;;;;12.07;80.04;99375.41;4980933;28;19922;-81
2021/06/16 09:32:56;;;;;;;;;;;;;;;12.06;80.62;99378.97;5000292;28;19922;-81
2021/06/16 09:35:23;;;;;;;;;;;;;;;12.11;80.80;99376.91;4999622;28;20190;-81
2021/06/16 09:37:50;;;;;;;;;;;;;;;12.14;81.67;99371.44;4997819;28;19985;-81
2021/06/16 09:40:38;;;;;;;;;;;;;;;12.11;80.40;99372.50;4992741;28;19933;-81
2021/06/16 09:43:05;;;;;;;;;;;;;;;12.10;79.97;99369.91;4993955;28;19922;-82
2021/06/16 09:45:30;;;;;;;;;;;;;;;11.93;81.00;99373.50;4999217;28;19984;-83
2021/06/16 09:47:56;;;;;;;;;;;;;;;12.14;80.86;99372.31;4982613;28;19921;-80
2021/06/16 09:50:23;;;;;;;;;;;;;;;12.08;80.54;99364.69;4999339;28;19952;-84
2021/06/16 09:52:49;;;;;;;;;;;;;;;12.26;79.91;99367.25;4999050;28;19961;-82
2021/06/16 09:55:20;;;;;;;;;;;;;;;12.18;79.16;99362.38;4980032;28;20289;-84
2021/06/16 09:58:05;;;;;;;;;;;;;;;12.10;79.92;99362.78;4995964;28;19949;-81
2021/06/16 10:00:30;;;;;;;;;;;;;;;12.24;79.37;99363.81;4994282;28;20245;-82
2021/06/16 10:03:13;;;;;;;;;;;;;;;12.16;79.76;99362.47;4982284;28;19933;-81
2021/06/16 10:05:57;;;;;;;;;;;;;;;12.27;78.92;99353.00;4981158;28;19960;-81
2021/06/16 10:08:23;;;;;;;;;;;;;;;12.25;78.52;99361.06;4973387;28;19926;-81
2021/06/16 10:10:49;;;;;;;;;;;;;;;12.14;78.45;99355.50;4975087;28;19918;-81
2021/06/16 10:13:17;;;;;;;;;;;;;;;12.16;80.10;99356.31;4994998;28;19922;-81
2021/06/16 10:15:42;;;;;;;;;;;;;;;12.21;79.33;99356.03;4963239;28;19948;-81
2021/06/16 10:18:08;;;;;;;;;;;;;;;12.21;78.67;99356.88;4965105;28;20289;-81
2021/06/16 10:20:34;;;;;;;;;;;;;;;12.13;78.85;99351.16;4996908;28;19922;-81
2021/06/16 10:22:59;;;;;;;;;;;;;;;12.28;78.38;99349.44;5000462;28;19989;-81
2021/06/16 10:25:25;;;;;;;;;;;;;;;12.28;78.45;99338.81;4983633;28;20198;-82
2021/06/16 10:27:55;;;;;;;;;;;;;;;12.28;79.61;99344.97;4997382;28;19933;-81
2021/06/16 10:30:22;;;;;;;;;;;;;;;12.21;78.75;99340.09;4966589;28;19989;-81
2021/06/16 10:32:48;;;;;;;;;;;;;;;12.23;78.76;99339.06;4980585;28;19932;-80
2021/06/16 10:35:15;;;;;;;;;;;;;;;12.23;78.32;99344.38;4999184;28;19926;-81
2021/06/16 10:37:45;;;;;;;;;;;;;;;12.29;78.85;99337.88;4976714;28;19926;-81
2021/06/16 10:40:13;;;;;;;;;;;;;;;12.20;78.53;99335.72;4998549;28;19933;-81
2021/06/16 10:43:02;;;;;;;;;;;;;;;12.25;79.10;99338.97;4980893;28;19929;-81
2021/06/16 10:45:36;;;;;;;;;;;;;;;12.10;79.17;99330.94;4947141;28;20357;-81
2021/06/16 10:48:04;;;;;;;;;;;;;;;12.61;79.42;99332.50;4989991;28;19922;-82
2021/06/16 10:50:44;;;;;;;;;;;;;;;12.42;77.50;99341.53;4992719;28;20000;-84
2021/06/16 10:53:10;;;;;;;;;;;;;;;12.33;75.68;99332.28;4994744;28;19973;-82
2021/06/16 10:55:53;;;;;;;;;;;;;;;12.20;75.76;99333.91;4994400;28;19930;-82
2021/06/16 10:58:22;;;;;;;;;;;;;;;12.07;75.68;99328.44;4992516;28;19926;-82
2021/06/16 11:01:06;;;;;;;;;;;;;;;12.07;75.81;99327.59;4996505;28;19928;-81
2021/06/16 11:03:51;;;;;;;;;;;;;;;11.99;75.81;99326.22;4972336;28;19922;-82
2021/06/16 11:06:35;;;;;;;;;;;;;;;11.91;77.36;99327.56;4973694;28;19922;-82
2021/06/16 11:09:09;;;;;;;;;;;;;;;12.44;78.55;99326.34;5000142;28;20293;-85
2021/06/16 11:11:50;;;;;;;;;;;;;;;13.75;99.08;99325.59;4976710;28;20370;-83
2021/06/16 11:14:48;;;;;;;;;;;;;;;18.81;70.93;99309.91;4980478;28;19926;-81
2021/06/16 11:17:32;;;;;;;;;;;;;;;18.05;71.02;99312.63;4962627;28;20117;-80
2021/06/16 11:19:58;;;;;;;;;;;;;;;14.65;79.54;99313.56;4976767;28;19926;-79
2021/06/16 11:22:23;;;;;;;;;;;;;;;13.87;77.21;99310.66;4984451;28;20312;-80
2021/06/16 11:25:03;;;;;;;;;;;;;;;13.55;75.57;99295.78;4974730;28;19926;-81
2021/06/16 11:27:47;;;;;;;;;;;;;;;13.50;73.41;99310.31;4981942;28;19934;-81
2021/06/16 11:30:14;;;;;;;;;;;;;;;13.29;72.95;99293.84;4989437;28;19971;-82
2021/06/16 11:32:40;;;;;;;;;;;;;;;13.12;72.92;99292.25;4993775;28;19921;-82
2021/06/16 11:35:05;;;;;;;;;;;;;;;13.14;74.31;99293.84;4970974;28;19958;-80
2021/06/16 11:37:49;;;;;;;;;;;;;;;13.00;73.15;99294.72;4988732;28;19922;-81
2021/06/16 11:40:17;;;;;;;;;;;;;;;12.90;72.92;99294.38;4994095;28;19925;-82
2021/06/16 11:42:43;;;;;;;;;;;;;;;12.87;74.55;99289.25;4985959;28;20311;-79
2021/06/16 11:45:09;;;;;;;;;;;;;;;12.85;72.92;99288.50;5003595;28;19965;-80
2021/06/16 11:47:34;;;;;;;;;;;;;;;12.80;74.90;99289.72;4990166;28;20013;-81
2021/06/16 11:50:00;;;;;;;;;;;;;;;12.88;73.92;99290.13;4984981;28;19958;-82
2021/06/16 11:52:26;;;;;;;;;;;;;;;12.70;73.66;99289.41;4975780;28;20279;-81
2021/06/16 11:54:52;;;;;;;;;;;;;;;12.74;73.36;99287.44;4986579;28;19922;-81
2021/06/16 11:57:20;;;;;;;;;;;;;;;12.77;73.27;99290.75;4987891;28;19958;-80
2021/06/16 11:59:47;;;;;;;;;;;;;;;12.60;73.47;99281.13;4999391;28;19980;-81
2021/06/16 12:02:16;;;;;;;;;;;;;;;12.79;73.98;99278.22;4995354;28;20412;-81
2021/06/16 12:04:53;;;;;;;;;;;;;;;12.75;73.11;99274.06;4994506;28;19965;-79
2021/06/16 12:07:19;;;;;;;;;;;;;;;12.65;74.45;99275.53;5000733;28;19928;-81
2021/06/16 12:09:45;;;;;;;;;;;;;;;12.66;73.53;99271.94;5002489;28;20204;-81
2021/06/16 12:12:11;;;;;;;;;;;;;;;12.69;74.04;99269.09;5000887;28;20008;-82
2021/06/16 12:14:36;;;;;;;;;;;;;;;12.63;73.48;99269.47;5001183;28;19934;-81
2021/06/16 12:17:03;;;;;;;;;;;;;;;12.60;73.92;99267.00;5004769;28;19933;-82
2021/06/16 12:19:32;;;;;;;;;;;;;;;12.72;73.21;99271.59;4976878;28;19926;-80
2021/06/16 12:21:58;;;;;;;;;;;;;;;12.73;73.19;99273.28;4996887;28;20289;-82
2021/06/16 12:24:24;;;;;;;;;;;;;;;12.62;73.49;99265.97;4982724;28;19947;-82
2021/06/16 12:27:17;;;;;;;;;;;;;;;12.68;73.43;99264.72;5000067;28;20289;-81
2021/06/16 12:29:54;;;;;;;;;;;;;;;12.62;73.59;99262.44;4976756;28;19922;-81
2021/06/16 12:32:36;;;;;;;;;;;;;;;12.61;73.53;99263.41;4980347;28;19933;-81
2021/06/16 12:35:07;;;;;;;;;;;;;;;12.73;73.71;99244.03;4998532;28;19999;-81
2021/06/16 12:37:44;;;;;;;;;;;;;;;12.67;73.76;99253.25;4996495;28;19941;-82
2021/06/16 12:40:11;;;;;;;;;;;;;;;12.73;73.81;99249.34;4996274;28;20572;-81
2021/06/16 12:42:38;;;;;;;;;;;;;;;12.73;74.03;99241.38;4991993;28;19923;-81
2021/06/16 12:45:04;;;;;;;;;;;;;;;12.74;74.46;99243.09;4991971;28;19926;-82
2021/06/16 12:47:33;;;;;;;;;;;;;;;12.72;74.91;99239.69;4998748;28;19934;-80
2021/06/16 12:49:58;;;;;;;;;;;;;;;12.77;74.09;99239.41;4995728;28;19928;-82
2021/06/16 12:52:31;;;;;;;;;;;;;;;12.64;74.64;99231.31;4976315;28;19929;-81
2021/06/16 12:55:10;;;;;;;;;;;;;;;12.69;74.73;99224.75;4994522;28;19922;-80
2021/06/16 12:57:43;;;;;;;;;;;;;;;12.71;75.00;99230.84;4997644;28;19937;-82
2021/06/16 13:00:15;;;;;;;;;;;;;;;12.75;74.29;99228.88;4989894;28;19926;-81
2021/06/16 13:02:41;;;;;;;;;;;;;;;12.66;74.51;99227.59;5000972;28;20249;-81
2021/06/16 13:05:08;;;;;;;;;;;;;;;12.80;74.75;99228.59;4992226;28;19926;-80
2021/06/16 13:07:40;;;;;;;;;;;;;;;12.79;74.54;99224.22;4977697;28;19941;-79
2021/06/16 13:10:07;;;;;;;;;;;;;;;12.67;74.97;99217.84;4996477;28;19957;-81
2021/06/16 13:12:33;;;;;;;;;;;;;;;12.68;74.53;99224.84;4992910;28;19937;-80
2021/06/16 13:15:02;;;;;;;;;;;;;;;12.73;75.55;99222.75;4981790;28;19922;-80
2021/06/16 13:17:28;;;;;;;;;;;;;;;12.81;74.58;99219.66;4995103;28;19929;-80
2021/06/16 13:19:57;;;;;;;;;;;;;;;12.70;75.03;99220.28;4993480;28;19934;-81
2021/06/16 13:22:36;;;;;;;;;;;;;;;12.74;75.15;99219.16;4994766;28;19933;-81
2021/06/16 13:25:02;;;;;;;;;;;;;;;12.66;75.45;99218.78;4997826;28;19992;-81
2021/06/16 13:27:28;;;;;;;;;;;;;;;12.62;75.86;99215.47;4992853;28;19921;-81
2021/06/16 13:30:00;;;;;;;;;;;;;;;12.74;75.17;99211.19;4995146;28;19933;-81
2021/06/16 13:32:36;;;;;;;;;;;;;;;12.78;74.75;99204.75;4994621;28;19937;-82
2021/06/16 13:35:01;;;;;;;;;;;;;;;12.86;74.27;99210.44;4989926;28;19922;-82
2021/06/16 13:37:27;;;;;;;;;;;;;;;12.90;75.30;99206.63;4993314;28;20286;-82
2021/06/16 13:39:52;;;;;;;;;;;;;;;14.43;80.42;99190.66;4993743;28;20004;-82
2021/06/16 13:42:20;;;;;;;;;;;;;;;14.42;85.03;99191.59;4997284;28;19930;-82
2021/06/16 13:44:46;;;;;;;;;;;;;;;14.67;86.44;99188.97;4993024;28;19932;-81
2021/06/16 13:47:11;;;;;;;;;;;;;;;14.52;86.40;99187.34;4985115;28;20344;-82
2021/06/16 13:49:36;;;;;;;;;;;;;;;14.57;86.14;99190.56;4970809;28;20290;-83
2021/06/16 13:52:02;;;;;;;;;;;;;;;14.66;87.20;99189.97;4995999;28;19953;-82
2021/06/16 13:54:27;;;;;;;;;;;;;;;14.75;86.72;99185.78;4972751;28;19933;-82
2021/06/16 13:56:52;;;;;;;;;;;;;;;14.81;85.49;99192.53;4995049;28;19933;-82
2021/06/16 13:59:18;;;;;;;;;;;;;;;14.63;86.95;99195.50;4990110;28;20268;-82
2021/06/16 14:01:43;;;;;;;;;;;;;;;14.34;89.35;99194.78;4973745;28;19926;-83
2021/06/16 14:04:09;;;;;;;;;;;;;;;14.09;91.50;99193.78;4971946;28;19937;-82
2021/06/16 14:06:35;;;;;;;;;;;;;;;13.97;91.85;99184.78;4977654;28;20244;-82
2021/06/16 14:09:03;;;;;;;;;;;;;;;13.89;92.69;99189.75;4985550;28;20013;-82
2021/06/16 14:11:28;;;;;;;;;;;;;;;13.82;93.45;99183.16;4991676;28;19922;-83
2021/06/16 14:13:54;;;;;;;;;;;;;;;13.96;93.01;99182.22;4963824;28;19926;-83
2021/06/16 14:16:19;;;;;;;;;;;;;;;13.98;93.52;99186.50;4987718;28;19922;-83
2021/06/16 14:18:45;;;;;;;;;;;;;;;13.90;94.70;99180.00;4965224;28;20290;-83
2021/06/16 14:21:10;;;;;;;;;;;;;;;13.92;94.54;99188.72;4968905;28;20004;-84
2021/06/16 14:23:36;;;;;;;;;;;;;;;13.87;94.63;99175.72;4992586;28;20003;-83
2021/06/16 14:26:03;;;;;;;;;;;;;;;13.95;94.21;99178.72;4973899;28;19925;-84
2021/06/16 14:28:28;;;;;;;;;;;;;;;13.97;93.55;99170.63;4987300;28;19990;-83
2021/06/16 14:30:53;;;;;;;;;;;;;;;13.94;93.94;99170.81;4992438;28;19965;-84
2021/06/16 14:33:18;;;;;;;;;;;;;;;13.95;94.37;99176.03;4983403;28;20017;-84
2021/06/16 14:35:44;;;;;;;;;;;;;;;13.96;93.83;99172.44;4992916;28;19952;-84
2021/06/16 14:38:09;;;;;;;;;;;;;;;14.07;93.39;99170.84;4983595;28;19930;-84
2021/06/16 14:40:34;;;;;;;;;;;;;;;14.24;92.02;99173.22;4961427;28;19933;-83
2021/06/16 14:43:00;;;;;;;;;;;;;;;14.15;92.58;99173.84;4964231;28;19929;-84
2021/06/16 14:45:26;;;;;;;;;;;;;;;14.17;92.29;99171.97;4988303;28;19996;-86
2021/06/16 14:47:51;;;;;;;;;;;;;;;14.28;91.58;99180.06;4990609;28;19997;-85
2021/06/16 14:50:16;;;;;;;;;;;;;;;14.38;90.95;99166.97;4992235;28;19922;-83
2021/06/16 14:52:42;;;;;;;;;;;;;;;14.34;91.42;99174.34;4973171;28;20248;-84
2021/06/16 14:55:07;;;;;;;;;;;;;;;14.52;90.81;99166.03;5001074;28;19922;-85
2021/06/16 14:57:33;;;;;;;;;;;;;;;14.57;90.71;99169.22;5000130;28;19926;-84
2021/06/16 14:59:58;;;;;;;;;;;;;;;14.61;90.72;99154.75;4969565;28;19926;-84
2021/06/16 15:02:23;;;;;;;;;;;;;;;15.03;89.96;99147.34;4982053;28;20236;-83
2021/06/16 15:04:49;;;;;;;;;;;;;;;15.38;88.77;99154.63;5001096;28;19933;-85
2021/06/16 15:07:14;;;;;;;;;;;;;;;15.16;89.29;99146.50;4981998;28;20053;-85
2021/06/16 15:09:39;;;;;;;;;;;;;;;15.13;88.96;99154.72;4998288;28;19922;-86
2021/06/16 15:12:05;;;;;;;;;;;;;;;15.07;89.00;99151.50;4975150;28;19922;-85
2021/06/16 15:14:30;;;;;;;;;;;;;;;15.16;88.78;99151.81;4980751;28;19921;-85
2021/06/16 15:16:56;;;;;;;;;;;;;;;15.13;88.71;99144.88;4982812;28;19922;-83
2021/06/16 15:19:21;;;;;;;;;;;;;;;15.20;87.96;99147.97;5002781;28;19925;-85
2021/06/16 15:21:46;;;;;;;;;;;;;;;15.85;100.00;99148.59;4981263;28;19923;-83
2021/06/16 15:24:12;;;;;;;;;;;;;;;17.51;93.57;99138.31;4977087;28;19922;-84
2021/06/16 15:26:39;;;;;;;;;;;;;;;18.10;100.00;99138.88;4991937;28;19926;-85
2021/06/16 15:29:05;;;;;;;;;;;;;;;16.14;100.00;99135.69;4993162;28;19936;-85
2021/06/16 15:31:31;;;;;;;;;;;;;;;15.36;100.00;99139.69;5000677;28;19922;-84
2021/06/16 15:33:57;;;;;;;;;;;;;;;15.07;100.00;99139.97;4978542;28;19980;-84
2021/06/16 15:36:23;;;;;;;;;;;;;;;14.84;99.77;99136.31;4995697;28;20305;-85
2021/06/16 15:38:48;;;;;;;;;;;;;;;14.73;97.61;99122.84;5002111;28;19932;-86
2021/06/16 15:41:15;;;;;;;;;;;;;;;14.63;96.95;99127.97;5020498;28;19917;-86
2021/06/16 15:43:44;;;;;;;;;;;;;;;14.68;95.96;99124.03;5000711;28;19929;-84
2021/06/16 15:46:09;;;;;;;;;;;;;;;14.58;94.89;99122.09;4991370;28;19921;-84
2021/06/16 15:48:34;;;;;;;;;;;;;;;14.81;93.65;99124.03;4996976;28;19928;-84
2021/06/16 15:51:01;;;;;;;;;;;;;;;14.63;93.03;99125.31;5001150;28;20196;-84
2021/06/16 15:53:27;;;;;;;;;;;;;;;14.59;91.98;99123.81;4983089;28;19930;-84
2021/06/16 15:55:54;;;;;;;;;;;;;;;14.58;91.60;99122.94;4983236;28;19922;-84
2021/06/16 15:58:21;;;;;;;;;;;;;;;14.69;90.75;99120.44;4981114;28;19929;-85
2021/06/16 16:00:46;;;;;;;;;;;;;;;14.58;90.58;99120.25;5000107;28;19965;-85
2021/06/16 16:03:14;;;;;;;;;;;;;;;14.49;90.16;99118.28;4995656;28;19988;-85
2021/06/16 16:05:39;;;;;;;;;;;;;;;14.46;89.89;99121.16;4989083;28;19930;-84
2021/06/16 16:08:04;;;;;;;;;;;;;;;14.42;89.30;99119.63;4966895;28;20352;-84
2021/06/16 16:10:30;;;;;;;;;;;;;;;14.44;88.83;99117.72;4965505;28;19922;-86
2021/06/16 16:12:57;;;;;;;;;;;;;;;14.47;88.15;99121.03;4998588;28;20433;-85
2021/06/16 16:15:22;;;;;;;;;;;;;;;14.41;87.47;99120.59;4979020;28;19949;-84
2021/06/16 16:17:48;;;;;;;;;;;;;;;14.50;87.51;99106.63;4980076;28;20281;-85
2021/06/16 16:20:13;;;;;;;;;;;;;;;14.43;86.35;99113.34;4997994;28;19934;-85
2021/06/16 16:22:40;;;;;;;;;;;;;;;14.40;86.23;99108.25;4982337;28;19922;-84
2021/06/16 16:25:06;;;;;;;;;;;;;;;14.38;85.89;99107.50;4982073;28;20044;-84
2021/06/16 16:27:31;;;;;;;;;;;;;;;14.40;85.28;99109.09;4997650;28;19973;-84
2021/06/16 16:29:56;;;;;;;;;;;;;;;14.44;85.03;99107.94;4998753;28;20092;-84
2021/06/16 16:32:22;;;;;;;;;;;;;;;14.40;84.37;99109.09;4984371;28;20005;-85
2021/06/16 16:34:47;;;;;;;;;;;;;;;14.44;84.08;99107.06;4971724;28;20260;-85
2021/06/16 16:37:13;;;;;;;;;;;;;;;14.63;84.47;99101.31;4998171;28;20297;-85
2021/06/16 16:39:40;;;;;;;;;;;;;;;14.63;84.20;99103.97;4986137;28;19937;-85
2021/06/16 16:42:06;;;;;;;;;;;;;;;14.59;83.11;99102.47;4995404;28;20213;-88
2021/06/16 16:44:32;;;;;;;;;;;;;;;14.58;82.42;99095.44;4983362;28;19930;-85
2021/06/16 16:46:58;;;;;;;;;;;;;;;14.59;81.55;99095.31;4980417;28;19992;-85
2021/06/16 16:49:23;;;;;;;;;;;;;;;14.63;81.23;99094.19;5000441;28;19991;-86
2021/06/16 16:51:48;;;;;;;;;;;;;;;14.67;80.80;99095.66;5003213;28;19940;-85
2021/06/16 16:54:13;;;;;;;;;;;;;;;14.71;79.95;99091.84;5003415;28;20308;-86
2021/06/16 16:56:39;;;;;;;;;;;;;;;14.72;79.51;99095.34;5006542;28;19922;-86
2021/06/16 16:59:05;;;;;;;;;;;;;;;14.71;79.14;99089.16;4986275;28;19952;-85
2021/06/16 17:01:30;;;;;;;;;;;;;;;14.63;78.80;99099.53;4961520;28;19933;-85
2021/06/16 17:03:55;;;;;;;;;;;;;;;14.65;78.82;99096.75;4963252;28;19922;-85
2021/06/16 17:06:21;;;;;;;;;;;;;;;14.69;78.07;99090.22;4961719;28;19950;-85
2021/06/16 17:08:50;;;;;;;;;;;;;;;14.57;78.05;99096.38;4972365;28;19922;-86
2021/06/16 17:11:17;;;;;;;;;;;;;;;14.46;77.93;99102.50;4960552;28;19927;-85
2021/06/16 17:13:43;;;;;;;;;;;;;;;14.47;77.86;99102.38;4957782;28;20012;-85
2021/06/16 17:16:08;;;;;;;;;;;;;;;14.61;78.11;99096.09;4961415;28;19961;-85
2021/06/16 17:18:34;;;;;;;;;;;;;;;14.78;78.19;99099.41;4954246;28;19941;-84
2021/06/16 17:20:59;;;;;;;;;;;;;;;14.59;78.44;99095.31;4973348;28;19930;-85
2021/06/16 17:23:26;;;;;;;;;;;;;;;14.46;78.41;99098.00;4979729;28;19926;-86
2021/06/16 17:25:52;;;;;;;;;;;;;;;14.45;78.04;99095.44;4974873;28;19922;-84
2021/06/16 17:28:20;;;;;;;;;;;;;;;14.45;77.74;99106.09;4972078;28;19957;-85
2021/06/16 17:30:46;;;;;;;;;;;;;;;14.42;77.56;99106.31;4974495;28;20241;-85
2021/06/16 17:33:11;;;;;;;;;;;;;;;14.40;77.42;99108.25;4969722;28;19921;-84
2021/06/16 17:35:37;;;;;;;;;;;;;;;14.36;77.50;99104.94;4973754;28;19933;-86
2021/06/16 17:38:04;;;;;;;;;;;;;;;14.33;77.52;99100.66;4958173;28;19935;-86
2021/06/16 17:40:31;;;;;;;;;;;;;;;14.32;77.59;99104.28;4962484;28;19933;-84
2021/06/16 17:43:00;;;;;;;;;;;;;;;14.34;77.62;99099.72;4975989;28;19996;-83
2021/06/16 17:45:27;;;;;;;;;;;;;;;14.35;77.71;99106.72;4958307;28;20521;-83
2021/06/16 17:47:54;;;;;;;;;;;;;;;14.32;77.81;99106.94;4970691;28;20057;-84
2021/06/16 17:50:20;;;;;;;;;;;;;;;14.30;77.98;99098.22;4969360;28;19918;-82
2021/06/16 17:52:46;;;;;;;;;;;;;;;14.32;78.19;99101.63;4957624;28;19922;-86
2021/06/16 17:55:13;;;;;;;;;;;;;;;14.27;78.71;99106.41;4972508;28;19930;-84
2021/06/16 17:57:41;;;;;;;;;;;;;;;14.27;78.79;99109.06;4969604;28;19932;-84
2021/06/16 18:00:07;;;;;;;;;;;;;;;14.27;78.91;99103.75;4951010;28;19926;-83
2021/06/16 18:02:33;;;;;;;;;;;;;;;14.23;79.38;99104.94;4968868;28;19964;-84
2021/06/16 18:04:58;;;;;;;;;;;;;;;15.35;81.85;99106.81;4971841;28;20048;-85
2021/06/16 18:07:23;;;;;;;;;;;;;;;14.65;80.76;99107.41;4957144;28;19935;-86
2021/06/16 18:09:49;;;;;;;;;;;;;;;14.31;80.02;99110.59;4973507;28;19922;-86
2021/06/16 18:12:16;;;;;;;;;;;;;;;14.22;79.18;99105.88;4956591;28;19930;-87
2021/06/16 18:14:44;;;;;;;;;;;;;;;14.12;78.95;99107.47;4971227;28;19925;-84
2021/06/16 18:17:11;;;;;;;;;;;;;;;14.07;78.36;99107.81;4963054;28;19973;-85
2021/06/16 18:19:36;;;;;;;;;;;;;;;14.01;78.21;99102.00;4977191;28;19930;-83
2021/06/16 18:22:01;;;;;;;;;;;;;;;13.97;77.90;99101.38;4972036;28;20225;-83
2021/06/16 18:24:27;;;;;;;;;;;;;;;14.11;79.55;99103.09;4974034;28;19930;-85
2021/06/16 18:26:52;;;;;;;;;;;;;;;13.96;78.87;99105.84;4980126;28;19921;-81
2021/06/16 18:29:19;;;;;;;;;;;;;;;13.90;78.59;99100.94;4967554;28;19923;-84
2021/06/16 18:31:46;;;;;;;;;;;;;;;13.89;78.35;99104.56;4972382;28;19930;-82
2021/06/16 18:34:11;;;;;;;;;;;;;;;13.77;78.41;99105.41;4973005;28;19929;-82
2021/06/16 18:36:37;;;;;;;;;;;;;;;13.77;78.06;99100.06;4973778;28;19923;-82
2021/06/16 18:39:04;;;;;;;;;;;;;;;13.77;77.60;99105.41;4956746;28;20061;-83
2021/06/16 18:41:30;;;;;;;;;;;;;;;13.74;77.40;99095.78;4970486;28;19942;-83
2021/06/16 18:43:56;;;;;;;;;;;;;;;13.71;77.49;99095.16;4956498;28;19922;-82
2021/06/16 18:46:22;;;;;;;;;;;;;;;13.68;77.58;99095.34;4968106;28;19929;-83
2021/06/16 18:48:47;;;;;;;;;;;;;;;13.63;77.32;99088.53;4972823;28;20012;-83
2021/06/16 18:51:14;;;;;;;;;;;;;;;13.62;77.27;99100.13;4958816;28;20220;-82
2021/06/16 18:53:41;;;;;;;;;;;;;;;13.58;76.78;99095.97;4969598;28;19930;-85
2021/06/16 18:56:06;;;;;;;;;;;;;;;13.58;76.77;99105.75;4955173;28;20392;-82
2021/06/16 18:58:32;;;;;;;;;;;;;;;13.54;76.85;99106.91;4972831;28;19940;-84
2021/06/16 19:00:58;;;;;;;;;;;;;;;13.52;76.91;99096.38;4975823;28;19926;-83
2021/06/16 19:03:29;;;;;;;;;;;;;;;13.52;76.85;99107.00;4966949;28;20515;-85
2021/06/16 19:05:54;;;;;;;;;;;;;;;13.54;76.77;99096.25;4958680;28;19926;-85
2021/06/16 19:08:22;;;;;;;;;;;;;;;13.50;76.99;99103.59;4968051;28;19922;-84
2021/06/16 19:10:49;;;;;;;;;;;;;;;13.94;78.25;99104.25;4975917;28;19981;-88
2021/06/16 19:13:17;;;;;;;;;;;;;;;13.61;77.75;99097.56;4976615;28;19937;-88
2021/06/16 19:15:55;;;;;;;;;;;;;;;13.49;77.53;99111.69;4958528;28;19922;-87
2021/06/16 19:18:21;;;;;;;;;;;;;;;13.43;77.03;99108.47;4963227;28;19922;-86
2021/06/16 19:20:47;;;;;;;;;;;;;;;13.42;76.68;99111.25;4966852;28;19930;-86
2021/06/16 19:23:16;;;;;;;;;;;;;;;13.32;76.47;99108.25;4954089;28;19926;-88
2021/06/16 19:25:42;;;;;;;;;;;;;;;13.13;76.38;99116.59;4953087;28;20022;-88
2021/06/16 19:28:12;;;;;;;;;;;;;;;13.07;75.91;99107.19;4978556;28;19933;-86
2021/06/16 19:30:38;;;;;;;;;;;;;;;12.98;75.41;99114.91;4977776;28;19985;-87